Terminal Aerodrome Forecast
Issued by NWS New Orleans/Baton Rouge, LA

Home | Current Version | Previous Version | Text Only | Print | Product List | Glossary On
Versions: 1 2 3 4 5 6 7 8 9 10 11 12 13 14 15
000
FTUS44 KLIX 161700
TAFBTR
TAF
KBTR 161731Z 1618/1718 VRB03KT P6SM VCTS SCT025CB BKN090
      TEMPO 1619/1623 3SM TSRA BKN025CB
     FM170100 00000KT P6SM BKN090
     FM171100 00000KT P6SM SCT060=

USA.gov is the U.S. government's official web portal to all federal, state and local government web resources and services.